createdAt,value
2022-07-28T00:00:39.937Z,99.90
2022-07-28T00:03:42.861Z,99.90
2022-07-28T00:06:45.798Z,99.90
2022-07-28T00:09:48.779Z,99.90
2022-07-28T00:12:51.752Z,99.90
2022-07-28T00:15:56.064Z,99.90
2022-07-28T00:18:59.051Z,99.90
2022-07-28T00:22:02.597Z,99.90
2022-07-28T00:25:06.387Z,99.90
2022-07-28T00:28:09.451Z,99.90
2022-07-28T00:31:13.888Z,99.90
2022-07-28T00:34:17.462Z,99.90
2022-07-28T00:37:20.641Z,99.90
2022-07-28T00:40:43.609Z,99.90
2022-07-28T00:43:49.344Z,99.90
2022-07-28T00:46:53.915Z,99.90
2022-07-28T00:49:57.029Z,99.90
2022-07-28T00:53:01.065Z,99.90
2022-07-28T00:56:06.673Z,99.90
2022-07-28T00:59:10.167Z,99.90
2022-07-28T01:02:14.562Z,99.90
2022-07-28T01:05:17.632Z,99.90
2022-07-28T01:08:53.636Z,99.90
2022-07-28T01:12:02.443Z,99.90
2022-07-28T01:15:15.819Z,99.90
2022-07-28T01:18:22.419Z,99.90
2022-07-28T01:21:27.823Z,99.90
2022-07-28T01:24:35.629Z,99.90
2022-07-28T01:27:51.909Z,99.90
2022-07-28T01:30:59.638Z,99.90
2022-07-28T01:34:09.118Z,99.90
2022-07-28T01:37:18.142Z,99.90
2022-07-28T01:40:23.967Z,99.90
2022-07-28T01:43:29.633Z,99.90
2022-07-28T01:46:35.051Z,99.90
2022-07-28T01:49:38.740Z,99.90
2022-07-28T01:52:43.653Z,99.90
2022-07-28T01:55:50.217Z,99.90
2022-07-28T01:58:55.681Z,99.90
2022-07-28T02:02:01.805Z,99.90
2022-07-28T02:05:06.204Z,99.90
2022-07-28T02:08:10.257Z,99.90
2022-07-28T02:11:30.937Z,99.90
2022-07-28T02:14:36.291Z,99.90
2022-07-28T02:17:43.464Z,99.90
2022-07-28T02:20:46.707Z,99.90
2022-07-28T02:23:51.449Z,99.90
2022-07-28T02:27:00.683Z,99.90
2022-07-28T02:30:08.869Z,99.90
2022-07-28T02:33:21.744Z,99.90
2022-07-28T02:36:44.927Z,99.90
2022-07-28T02:39:58.740Z,99.90
2022-07-28T02:43:05.034Z,99.90
2022-07-28T02:46:13.756Z,99.90
2022-07-28T02:49:22.653Z,99.90
2022-07-28T02:52:28.014Z,99.90
2022-07-28T02:55:32.354Z,99.90
2022-07-28T02:58:35.766Z,99.90
2022-07-28T03:01:39.391Z,99.90
2022-07-28T03:05:01.563Z,99.90
2022-07-28T03:08:05.032Z,99.90
2022-07-28T03:11:09.437Z,99.90
2022-07-28T03:14:12.683Z,99.90
2022-07-28T03:17:16.119Z,99.90
2022-07-28T03:20:20.589Z,99.90
2022-07-28T03:23:27.690Z,99.90
2022-07-28T03:26:41.097Z,99.90
2022-07-28T03:29:46.879Z,99.90
2022-07-28T03:32:54.577Z,99.90
2022-07-28T03:36:03.626Z,99.90
2022-07-28T03:39:11.721Z,99.90
2022-07-28T03:42:16.796Z,99.90
2022-07-28T03:45:20.341Z,99.90
2022-07-28T03:48:29.049Z,99.90
2022-07-28T03:51:33.333Z,99.90
2022-07-28T03:54:36.289Z,99.90
2022-07-28T03:57:39.252Z,99.90
2022-07-28T04:00:42.201Z,99.90
2022-07-28T04:03:45.476Z,99.90
2022-07-28T04:06:49.782Z,99.90
2022-07-28T04:09:52.754Z,99.90
2022-07-28T04:12:57.210Z,99.90
2022-07-28T04:16:00.594Z,99.90
2022-07-28T04:19:03.822Z,99.90
2022-07-28T04:22:08.142Z,99.90
2022-07-28T04:25:12.763Z,99.90
2022-07-28T04:28:16.203Z,99.90
2022-07-28T04:31:19.238Z,99.90
2022-07-28T04:34:22.249Z,99.90
2022-07-28T04:37:27.160Z,99.90
2022-07-28T04:40:35.526Z,99.90
2022-07-28T04:43:38.687Z,99.90
2022-07-28T04:46:41.754Z,99.90
2022-07-28T04:49:45.100Z,99.90
2022-07-28T04:52:50.102Z,99.90
2022-07-28T04:55:54.921Z,99.90
2022-07-28T04:58:58.452Z,99.90
2022-07-28T05:02:02.806Z,99.90
2022-07-28T05:05:06.688Z,99.90
2022-07-28T05:08:11.005Z,99.90
2022-07-28T05:11:14.049Z,99.90
2022-07-28T05:14:17.525Z,99.90
2022-07-28T05:17:20.579Z,99.90
2022-07-28T05:20:23.521Z,99.90
2022-07-28T05:23:28.132Z,99.90
2022-07-28T05:26:32.203Z,99.90
2022-07-28T05:29:47.150Z,99.90
2022-07-28T05:32:51.123Z,99.90
2022-07-28T05:35:57.400Z,99.90
2022-07-28T05:39:01.715Z,99.90
2022-07-28T05:42:05.167Z,99.90
2022-07-28T05:45:16.543Z,99.90
2022-07-28T05:48:21.682Z,99.90
2022-07-28T05:51:24.693Z,99.90
2022-07-28T05:54:29.081Z,99.90
2022-07-28T05:57:32.042Z,99.90
2022-07-28T06:00:35.237Z,99.90
2022-07-28T06:03:42.062Z,99.90
2022-07-28T06:06:45.649Z,99.90
2022-07-28T06:09:49.972Z,99.90
2022-07-28T06:12:54.584Z,99.90
2022-07-28T06:15:58.956Z,99.90
2022-07-28T06:19:02.001Z,99.90
2022-07-28T06:22:06.204Z,99.90
2022-07-28T06:25:13.670Z,99.90
2022-07-28T06:28:18.720Z,99.90
2022-07-28T06:31:21.930Z,99.90
2022-07-28T06:34:25.301Z,99.90
2022-07-28T06:37:28.292Z,99.90
2022-07-28T06:40:32.600Z,99.90
2022-07-28T06:43:39.017Z,99.90
2022-07-28T06:46:42.517Z,99.90
2022-07-28T06:49:45.609Z,99.90
2022-07-28T06:52:48.684Z,99.90
2022-07-28T06:55:53.104Z,99.90
2022-07-28T06:58:56.072Z,99.90
2022-07-28T07:02:01.741Z,99.90
2022-07-28T07:05:05.050Z,99.90
2022-07-28T07:08:08.131Z,99.90
2022-07-28T07:11:13.140Z,99.90
2022-07-28T07:14:16.508Z,99.90
2022-07-28T07:17:19.765Z,99.90
2022-07-28T07:20:22.922Z,99.90
2022-07-28T07:23:26.054Z,99.90
2022-07-28T07:26:30.363Z,99.90
2022-07-28T07:29:33.396Z,99.90
2022-07-28T07:32:37.083Z,99.90
2022-07-28T07:35:40.094Z,99.90
2022-07-28T07:38:43.076Z,99.90
2022-07-28T07:41:47.465Z,99.90
2022-07-28T07:44:50.569Z,99.90
2022-07-28T07:47:53.583Z,99.90
2022-07-28T07:50:56.559Z,99.90
2022-07-28T07:53:59.690Z,99.90
2022-07-28T07:57:04.225Z,99.90
2022-07-28T08:00:08.601Z,99.90
2022-07-28T08:03:31.570Z,99.90
2022-07-28T08:06:35.962Z,99.90
2022-07-28T08:09:39.116Z,99.90
2022-07-28T08:12:43.429Z,99.90
2022-07-28T08:15:46.659Z,99.90
2022-07-28T08:18:49.685Z,99.90
2022-07-28T08:21:52.881Z,99.90
2022-07-28T08:24:55.852Z,99.90
2022-07-28T08:28:00.175Z,99.90
2022-07-28T08:31:03.238Z,99.90
2022-07-28T08:34:26.294Z,99.90
2022-07-28T08:37:29.302Z,99.90
2022-07-28T08:40:33.261Z,99.90
2022-07-28T08:43:40.703Z,99.90
2022-07-28T08:46:44.987Z,99.90
2022-07-28T08:49:50.032Z,99.90
2022-07-28T08:52:55.113Z,99.90
2022-07-28T08:56:03.744Z,99.90
2022-07-28T08:59:08.770Z,99.90
2022-07-28T09:02:14.166Z,99.90
2022-07-28T09:05:17.764Z,99.90
2022-07-28T09:08:20.858Z,99.90
2022-07-28T09:11:24.032Z,99.90
2022-07-28T09:14:28.398Z,99.90
2022-07-28T09:17:31.806Z,99.90
2022-07-28T09:20:37.298Z,99.90
2022-07-28T09:23:44.806Z,99.90
2022-07-28T09:27:01.866Z,99.90
2022-07-28T09:30:07.517Z,99.90
2022-07-28T09:33:41.875Z,99.90
2022-07-28T09:36:45.575Z,99.90
2022-07-28T09:39:49.439Z,99.90
2022-07-28T09:42:55.414Z,99.90
2022-07-28T09:46:06.387Z,99.90
2022-07-28T09:49:09.595Z,99.90
2022-07-28T09:52:12.979Z,99.90
2022-07-28T09:55:16.037Z,99.90
2022-07-28T09:58:19.467Z,99.90
2022-07-28T10:01:31.199Z,99.90
2022-07-28T10:04:41.476Z,99.90
2022-07-28T10:07:50.543Z,99.90
2022-07-28T10:11:00.702Z,99.90
2022-07-28T10:14:05.641Z,99.90
2022-07-28T10:17:10.831Z,99.90
2022-07-28T10:20:13.969Z,99.90
2022-07-28T10:23:18.394Z,99.90
2022-07-28T10:26:24.678Z,99.90
2022-07-28T10:29:31.465Z,99.90
2022-07-28T10:32:41.400Z,99.90
2022-07-28T10:35:55.099Z,99.90
2022-07-28T10:39:07.936Z,99.90
2022-07-28T10:42:13.032Z,99.90
2022-07-28T10:45:17.239Z,99.90
2022-07-28T10:48:23.797Z,99.90
2022-07-28T10:51:30.795Z,99.90
2022-07-28T10:54:37.594Z,99.90
2022-07-28T10:58:02.012Z,99.90
2022-07-28T11:01:48.349Z,99.90
2022-07-28T11:04:59.031Z,99.90
2022-07-28T11:08:04.464Z,99.90
2022-07-28T11:11:09.182Z,99.90
2022-07-28T11:14:37.730Z,99.90
2022-07-28T11:17:57.455Z,99.90
2022-07-28T11:21:10.330Z,99.90
2022-07-28T11:24:17.857Z,99.90
2022-07-28T11:28:03.234Z,99.90
2022-07-28T11:31:06.289Z,99.90
2022-07-28T11:34:09.329Z,99.90
2022-07-28T11:37:15.219Z,99.90
2022-07-28T11:40:31.835Z,99.90
2022-07-28T11:43:40.985Z,99.90
2022-07-28T11:46:45.663Z,99.90
2022-07-28T11:50:12.900Z,99.90
2022-07-28T11:53:16.850Z,99.90
2022-07-28T11:56:24.283Z,99.90
2022-07-28T11:59:36.498Z,99.90
2022-07-28T12:02:42.046Z,99.90
2022-07-28T12:05:57.817Z,99.90
2022-07-28T12:09:03.667Z,99.90
2022-07-28T12:12:08.670Z,99.90
2022-07-28T12:15:17.503Z,99.90
2022-07-28T12:18:20.542Z,99.90
2022-07-28T12:21:37.449Z,99.90
2022-07-28T12:24:57.995Z,99.90
2022-07-28T12:28:14.798Z,99.90
2022-07-28T12:31:19.273Z,99.90
2022-07-28T12:34:24.639Z,99.90
2022-07-28T12:37:32.496Z,99.90
2022-07-28T12:40:36.641Z,99.90
2022-07-28T12:43:39.667Z,99.90
2022-07-28T12:46:48.934Z,99.90
2022-07-28T12:50:08.969Z,99.90
2022-07-28T12:53:13.425Z,99.90
2022-07-28T12:56:16.420Z,99.90
2022-07-28T12:59:20.903Z,99.90
2022-07-28T13:02:38.138Z,99.90
2022-07-28T13:05:59.020Z,99.90
2022-07-28T13:09:02.174Z,99.90
2022-07-28T13:12:15.703Z,99.90
2022-07-28T13:15:18.844Z,99.90
2022-07-28T13:18:39.940Z,99.90
2022-07-28T13:21:57.345Z,99.90
2022-07-28T13:25:02.887Z,99.90
2022-07-28T13:28:06.269Z,99.90
2022-07-28T13:31:09.335Z,99.90
2022-07-28T13:34:14.104Z,99.90
2022-07-28T13:37:17.525Z,99.90
2022-07-28T13:40:23.269Z,99.90
2022-07-28T13:43:36.205Z,99.90
2022-07-28T13:46:43.757Z,99.90
2022-07-28T13:49:51.783Z,99.90
2022-07-28T13:52:54.871Z,99.80
2022-07-28T13:55:57.853Z,99.50
2022-07-28T13:59:01.624Z,99.50
2022-07-28T14:02:06.463Z,99.90
2022-07-28T14:05:21.081Z,99.90
2022-07-28T14:08:25.063Z,99.70
2022-07-28T14:11:28.591Z,99.60
2022-07-28T14:14:31.613Z,99.40
2022-07-28T14:17:43.291Z,99.60
2022-07-28T14:20:49.542Z,99.90
2022-07-28T14:23:52.670Z,99.90
2022-07-28T14:26:55.700Z,99.90
2022-07-28T14:29:58.857Z,99.90
2022-07-28T14:33:01.839Z,99.90
2022-07-28T14:36:07.163Z,99.90
2022-07-28T14:39:12.581Z,99.90
2022-07-28T14:42:15.877Z,99.90
2022-07-28T14:45:18.922Z,99.80
2022-07-28T14:48:21.899Z,99.90
2022-07-28T14:51:26.233Z,99.90
2022-07-28T14:54:29.318Z,99.30
2022-07-28T14:57:48.511Z,99.90
2022-07-28T15:00:56.818Z,99.40
2022-07-28T15:03:59.799Z,99.60
2022-07-28T15:07:04.211Z,99.30
2022-07-28T15:10:07.764Z,99.00
2022-07-28T15:13:10.760Z,99.00
2022-07-28T15:16:13.811Z,98.60
2022-07-28T15:19:17.386Z,99.30
2022-07-28T15:22:21.926Z,98.80
2022-07-28T15:25:29.603Z,99.00
2022-07-28T15:28:32.773Z,99.30
2022-07-28T15:31:37.559Z,98.90
2022-07-28T15:34:42.612Z,99.40
2022-07-28T15:37:46.950Z,99.10
2022-07-28T15:40:52.160Z,98.90
2022-07-28T15:43:56.223Z,99.30
2022-07-28T15:46:59.318Z,99.70
2022-07-28T15:50:02.731Z,99.90
2022-07-28T15:53:07.146Z,99.00
2022-07-28T15:56:10.123Z,99.20
2022-07-28T15:59:13.096Z,99.60
2022-07-28T16:02:17.330Z,99.10
2022-07-28T16:05:21.110Z,99.60
2022-07-28T16:08:25.517Z,99.30
2022-07-28T16:11:28.600Z,98.70
2022-07-28T16:14:32.499Z,98.70
2022-07-28T16:17:37.165Z,98.70
2022-07-28T16:20:40.963Z,99.00
2022-07-28T16:23:45.252Z,99.90
2022-07-28T16:26:49.815Z,99.50
2022-07-28T16:29:52.948Z,99.80
2022-07-28T16:32:58.311Z,99.60
2022-07-28T16:36:01.384Z,99.90
2022-07-28T16:39:06.630Z,99.90
2022-07-28T16:42:09.621Z,99.90
2022-07-28T16:45:13.079Z,99.90
2022-07-28T16:48:16.107Z,99.90
2022-07-28T16:51:19.138Z,99.80
2022-07-28T16:54:24.890Z,99.90
2022-07-28T16:57:27.849Z,99.90
2022-07-28T17:00:30.868Z,99.90
2022-07-28T17:03:34.703Z,99.90
2022-07-28T17:06:38.656Z,99.90
2022-07-28T17:09:44.123Z,99.90
2022-07-28T17:12:50.119Z,99.90
2022-07-28T17:15:53.944Z,99.90
2022-07-28T17:18:57.707Z,99.90
2022-07-28T17:22:01.221Z,99.90
2022-07-28T17:25:22.477Z,99.90
2022-07-28T17:28:29.588Z,99.90
2022-07-28T17:31:33.752Z,99.90
2022-07-28T17:34:37.461Z,99.90
2022-07-28T17:37:40.457Z,99.90
2022-07-28T17:40:44.901Z,99.90
2022-07-28T17:43:47.881Z,99.90
2022-07-28T17:46:51.009Z,99.90
2022-07-28T17:49:54.745Z,99.90
2022-07-28T17:52:57.750Z,99.90
2022-07-28T17:56:02.041Z,99.90
2022-07-28T17:59:08.974Z,99.90
2022-07-28T18:02:12.234Z,99.90
2022-07-28T18:05:15.518Z,99.90
2022-07-28T18:08:19.634Z,99.90
2022-07-28T18:11:24.473Z,99.90
2022-07-28T18:14:28.708Z,99.90
2022-07-28T18:17:32.925Z,99.90
2022-07-28T18:20:37.708Z,99.90
2022-07-28T18:23:40.831Z,99.90
2022-07-28T18:26:45.215Z,99.90
2022-07-28T18:29:48.191Z,99.90
2022-07-28T18:32:51.377Z,99.90
2022-07-28T18:35:54.376Z,99.90
2022-07-28T18:38:57.418Z,99.90
2022-07-28T18:42:01.778Z,99.90
2022-07-28T18:45:06.511Z,99.90
2022-07-28T18:48:11.368Z,99.90
2022-07-28T18:51:14.368Z,99.90
2022-07-28T18:54:23.235Z,99.90
2022-07-28T18:57:32.184Z,99.90
2022-07-28T19:00:35.184Z,99.90
2022-07-28T19:03:38.158Z,99.90
2022-07-28T19:06:41.254Z,99.90
2022-07-28T19:09:44.505Z,99.90
2022-07-28T19:12:50.808Z,99.90
2022-07-28T19:15:53.879Z,99.90
2022-07-28T19:18:56.954Z,99.90
2022-07-28T19:22:00.148Z,99.90
2022-07-28T19:25:03.573Z,99.90
2022-07-28T19:28:08.086Z,99.90
2022-07-28T19:31:11.232Z,99.90
2022-07-28T19:34:14.832Z,99.90
2022-07-28T19:37:18.758Z,99.90
2022-07-28T19:40:22.008Z,99.90
2022-07-28T19:43:26.324Z,99.90
2022-07-28T19:46:29.768Z,99.90
2022-07-28T19:49:32.813Z,99.90
2022-07-28T19:52:35.935Z,99.90
2022-07-28T19:55:40.795Z,99.90
2022-07-28T19:58:55.078Z,99.90
2022-07-28T20:01:58.135Z,99.90
2022-07-28T20:05:01.155Z,99.90
2022-07-28T20:08:04.243Z,99.90
2022-07-28T20:11:07.737Z,99.90
2022-07-28T20:14:12.253Z,99.90
2022-07-28T20:17:29.800Z,99.90
2022-07-28T20:20:38.391Z,99.90
2022-07-28T20:23:42.252Z,99.90
2022-07-28T20:26:45.770Z,99.90
2022-07-28T20:29:50.174Z,99.90
2022-07-28T20:32:53.161Z,99.90
2022-07-28T20:35:56.665Z,99.90
2022-07-28T20:38:59.636Z,99.90
2022-07-28T20:42:04.278Z,99.90
2022-07-28T20:45:09.363Z,99.90
2022-07-28T20:48:14.699Z,99.90
2022-07-28T20:51:18.930Z,99.90
2022-07-28T20:54:22.216Z,99.90
2022-07-28T20:57:25.213Z,99.90
2022-07-28T21:00:29.563Z,99.90
2022-07-28T21:03:32.579Z,99.90
2022-07-28T21:06:35.797Z,99.90
2022-07-28T21:09:40.862Z,99.90
2022-07-28T21:12:44.881Z,99.90
2022-07-28T21:15:49.252Z,99.90
2022-07-28T21:18:52.530Z,99.90
2022-07-28T21:21:55.560Z,99.90
2022-07-28T21:24:59.087Z,99.90
2022-07-28T21:28:19.551Z,99.90
2022-07-28T21:31:24.090Z,99.90
2022-07-28T21:34:27.072Z,99.90
2022-07-28T21:37:30.104Z,99.90
2022-07-28T21:40:33.310Z,99.90
2022-07-28T21:43:36.333Z,99.90
2022-07-28T21:46:43.065Z,99.90
2022-07-28T21:49:46.025Z,99.90
2022-07-28T21:52:49.084Z,99.90
2022-07-28T21:55:52.805Z,99.90
2022-07-28T21:58:55.862Z,99.90
2022-07-28T22:02:00.470Z,99.90
2022-07-28T22:05:03.508Z,99.90
2022-07-28T22:08:06.715Z,99.90
2022-07-28T22:11:09.821Z,99.90
2022-07-28T22:14:12.986Z,99.90
2022-07-28T22:17:17.775Z,99.90
2022-07-28T22:20:20.757Z,99.90
2022-07-28T22:23:28.826Z,99.90
2022-07-28T22:26:32.378Z,99.90
2022-07-28T22:29:35.433Z,99.90
2022-07-28T22:32:39.762Z,99.90
2022-07-28T22:35:43.012Z,99.90
2022-07-28T22:38:46.000Z,99.90
2022-07-28T22:41:49.023Z,99.90
2022-07-28T22:44:51.980Z,99.90
2022-07-28T22:47:56.297Z,99.90
2022-07-28T22:50:59.276Z,99.90
2022-07-28T22:54:02.350Z,99.90
2022-07-28T22:57:05.350Z,99.90
2022-07-28T23:00:09.671Z,99.90
2022-07-28T23:03:15.955Z,99.90
2022-07-28T23:06:19.007Z,99.90
2022-07-28T23:09:21.968Z,99.90
2022-07-28T23:12:25.747Z,99.90
2022-07-28T23:15:40.763Z,99.90
2022-07-28T23:18:46.067Z,99.90
2022-07-28T23:21:49.065Z,99.90
2022-07-28T23:24:52.531Z,99.90
2022-07-28T23:27:55.541Z,99.90
2022-07-28T23:30:58.601Z,99.90
2022-07-28T23:34:03.030Z,99.90
2022-07-28T23:37:06.079Z,99.90
2022-07-28T23:40:10.203Z,99.90
2022-07-28T23:43:13.434Z,99.90
2022-07-28T23:46:16.457Z,99.90
2022-07-28T23:49:21.264Z,99.90
2022-07-28T23:52:24.353Z,99.90
2022-07-28T23:55:27.326Z,99.90
2022-07-28T23:58:30.305Z,99.90
